Time;durP1;ratioP1;P1;durP2;ratioP2;P2;SDS_P1;SDS_P2;PMS_P1;PMS_P2;Temp;Humidity;BMP_temperature;BMP_pressure;BME280_temperature;BME280_humidity;BME280_pressure;Samples;Min_cycle;Max_cycle;Signal;HPM_P1;HPM_P2
2022/08/04 00:02:26;;;;;;;5.05;3.53;;;;;;;23.16;45.99;98647.53;5132873;27;20032;-91
2022/08/04 00:04:59;;;;;;;4.38;3.00;;;;;;;23.07;45.86;98632.00;5130035;27;20400;-90
2022/08/04 00:07:35;;;;;;;4.22;3.03;;;;;;;23.30;44.94;98643.69;5135336;27;20492;-90
2022/08/04 00:10:07;;;;;;;3.60;2.85;;;;;;;23.48;43.92;98637.75;5131301;27;20520;-91
2022/08/04 00:12:36;;;;;;;3.85;2.80;;;;;;;23.55;43.71;98636.25;5136474;27;20050;-90
2022/08/04 00:15:05;;;;;;;4.28;2.80;;;;;;;23.55;43.48;98638.97;5135875;27;20063;-91
2022/08/04 00:17:37;;;;;;;3.58;2.85;;;;;;;23.49;44.01;98642.22;5137850;27;20105;-90
2022/08/04 00:20:05;;;;;;;5.70;2.75;;;;;;;23.57;42.64;98632.44;5137985;27;20089;-92
2022/08/04 00:22:34;;;;;;;5.55;2.80;;;;;;;23.73;41.77;98632.03;5133129;27;20510;-91
2022/08/04 00:25:03;;;;;;;3.78;2.90;;;;;;;23.78;42.50;98637.09;5132482;27;20127;-91
2022/08/04 00:27:31;;;;;;;3.33;2.70;;;;;;;23.67;42.94;98639.81;5136427;27;20035;-89
2022/08/04 00:29:57;;;;;;;3.75;2.83;;;;;;;23.46;44.29;98632.44;5135991;27;20044;-89
2022/08/04 00:32:25;;;;;;;5.80;3.03;;;;;;;23.29;44.50;98647.41;5134689;27;20042;-90
2022/08/04 00:34:52;;;;;;;3.87;2.97;;;;;;;23.19;44.69;98641.00;5134797;27;20374;-92
2022/08/04 00:37:20;;;;;;;3.50;2.80;;;;;;;23.19;44.50;98645.56;5140595;27;20278;-91
2022/08/04 00:39:47;;;;;;;4.35;2.90;;;;;;;23.09;45.35;98640.88;5132861;27;20039;-91
2022/08/04 00:42:33;;;;;;;5.85;3.13;;;;;;;22.97;45.90;98653.53;5132014;27;20545;-91
2022/08/04 00:45:29;;;;;;;4.85;2.85;;;;;;;22.88;46.80;98656.13;5141105;27;20092;-91
2022/08/04 00:48:08;;;;;;;4.60;3.03;;;;;;;22.71;47.43;98649.34;5123120;27;20419;-93
2022/08/04 00:50:43;;;;;;;4.93;3.00;;;;;;;22.55;47.70;98655.97;5120880;27;20038;-92
2022/08/04 00:53:17;;;;;;;5.85;3.10;;;;;;;22.49;47.71;98633.91;5125058;27;20051;-92
2022/08/04 00:56:29;;;;;;;4.88;3.10;;;;;;;22.45;48.10;98659.50;5122026;27;20054;-91
2022/08/04 00:59:07;;;;;;;3.67;2.80;;;;;;;22.26;48.75;98651.94;5057408;28;20045;-90
2022/08/04 01:01:51;;;;;;;3.75;2.97;;;;;;;22.21;49.06;98649.56;5057247;28;20044;-91
2022/08/04 01:04:27;;;;;;;4.88;3.20;;;;;;;22.10;49.66;98649.53;5054176;28;20059;-93
2022/08/04 01:07:28;;;;;;;3.95;2.95;;;;;;;22.01;50.23;98644.78;5058619;28;20537;-94
2022/08/04 01:10:02;;;;;;;6.00;3.17;;;;;;;21.80;50.60;98650.84;5056970;28;20049;-91
2022/08/04 01:12:51;;;;;;;4.50;3.10;;;;;;;21.68;50.80;98647.22;5056287;28;20045;-90
2022/08/04 01:15:30;;;;;;;4.10;3.00;;;;;;;21.50;50.85;98645.88;5053766;28;20037;-90
2022/08/04 01:18:04;;;;;;;4.40;2.95;;;;;;;21.46;50.92;98647.94;5053955;28;20179;-91
2022/08/04 01:20:34;;;;;;;3.67;3.00;;;;;;;21.46;51.52;98655.19;5059736;28;20502;-91
2022/08/04 01:23:42;;;;;;;4.47;3.03;;;;;;;21.40;51.98;98658.31;5051521;28;20040;-92
2022/08/04 01:26:45;;;;;;;4.25;2.92;;;;;;;21.29;51.90;98659.97;5057269;28;20093;-91
2022/08/04 01:29:14;;;;;;;4.82;3.08;;;;;;;21.28;51.71;98660.09;5055150;28;20033;-89
2022/08/04 01:31:54;;;;;;;5.28;3.08;;;;;;;21.29;51.07;98646.44;5056184;28;20044;-90
2022/08/04 01:34:21;;;;;;;5.90;3.00;;;;;;;21.35;51.01;98642.44;5115915;27;20036;-91
2022/08/04 01:36:58;;;;;;;4.45;2.90;;;;;;;21.33;50.77;98636.28;5115680;27;20070;-92
2022/08/04 01:42:34;;;;;;;5.55;3.00;;;;;;;21.51;50.48;98637.66;5130929;27;20324;-92
2022/08/04 01:45:03;;;;;;;4.35;3.03;;;;;;;21.47;50.73;98644.28;5130998;27;20522;-92
2022/08/04 01:47:29;;;;;;;;;;;;;;;21.40;51.32;98648.34;5131474;27;20053;-91
2022/08/04 01:50:04;;;;;;;4.10;2.90;;;;;;;21.29;52.06;98643.72;5130805;27;19927;-92
2022/08/04 01:52:31;;;;;;;4.88;3.10;;;;;;;21.25;51.84;98653.06;5132808;27;20502;-91
2022/08/04 01:55:00;;;;;;;4.97;2.92;;;;;;;21.09;51.96;98639.78;5131557;27;20058;-92
2022/08/04 01:57:27;;;;;;;4.43;2.80;;;;;;;20.90;52.30;98625.88;5132228;27;20043;-91
2022/08/04 01:59:58;;;;;;;4.82;3.17;;;;;;;20.93;52.51;98639.19;5130655;27;20162;-90
2022/08/04 02:02:24;;;;;;;5.68;3.00;;;;;;;20.76;52.88;98631.41;5130315;28;20035;-92
2022/08/04 02:04:49;;;;;;;3.58;2.88;;;;;;;20.82;52.93;98649.88;5130701;27;20408;-91
2022/08/04 02:07:46;;;;;;;4.43;3.20;;;;;;;20.62;53.35;98641.31;5131890;27;20051;-92
2022/08/04 02:10:25;;;;;;;4.05;2.80;;;;;;;20.66;53.17;98637.44;5131546;28;20039;-90
2022/08/04 02:13:01;;;;;;;3.85;2.83;;;;;;;20.81;52.52;98635.50;5130423;28;20067;-91
2022/08/04 02:15:39;;;;;;;3.90;2.85;;;;;;;20.89;52.59;98634.97;5130045;28;20050;-89
2022/08/04 02:18:15;;;;;;;5.00;3.28;;;;;;;21.02;52.73;98648.47;5129117;28;20136;-90
2022/08/04 02:20:45;;;;;;;6.00;3.10;;;;;;;20.90;52.57;98631.28;5129585;28;20038;-91
2022/08/04 02:23:14;;;;;;;6.03;2.72;;;;;;;20.86;52.83;98627.06;5130781;27;20035;-91
2022/08/04 02:25:54;;;;;;;5.63;3.30;;;;;;;20.85;52.72;98639.72;5129000;28;20036;-92
2022/08/04 02:28:28;;;;;;;4.63;3.13;;;;;;;20.81;53.44;98642.75;5131953;27;20434;-90
2022/08/04 02:31:07;;;;;;;3.75;2.92;;;;;;;20.76;53.79;98653.88;5130774;28;20043;-91
2022/08/04 02:33:37;;;;;;;5.25;3.10;;;;;;;20.59;54.19;98635.28;5131765;27;21696;-90
2022/08/04 02:36:04;;;;;;;4.22;3.15;;;;;;;20.56;54.57;98652.56;5129042;28;20059;-92
2022/08/04 02:38:46;;;;;;;3.83;2.95;;;;;;;20.48;55.19;98658.47;5130416;27;20040;-91
2022/08/04 02:41:15;;;;;;;4.47;3.20;;;;;;;20.39;55.29;98660.97;5129895;27;20043;-91
2022/08/04 02:43:42;;;;;;;5.78;3.35;;;;;;;20.23;56.35;98643.13;5131976;27;20031;-91
2022/08/04 02:46:11;;;;;;;4.13;3.22;;;;;;;20.14;56.81;98642.88;5130687;28;20031;-90
2022/08/04 02:48:39;;;;;;;4.43;3.08;;;;;;;20.07;56.16;98640.59;5130376;27;20788;-91
2022/08/04 02:51:05;;;;;;;4.78;3.08;;;;;;;20.22;55.68;98651.31;5130060;27;20047;-90
2022/08/04 02:53:35;;;;;;;3.78;3.10;;;;;;;20.22;55.28;98624.31;5117587;28;20035;-92
2022/08/04 02:56:02;;;;;;;4.40;3.00;;;;;;;20.23;55.50;98634.13;5116005;28;20040;-90
2022/08/04 02:58:33;;;;;;;4.95;3.00;;;;;;;20.29;55.61;98644.53;5116708;28;20039;-92
2022/08/04 03:00:59;;;;;;;4.55;3.15;;;;;;;20.34;56.17;98639.66;5114768;28;20040;-93
2022/08/04 03:03:35;;;;;;;4.03;3.00;;;;;;;20.21;56.04;98639.66;5116050;27;20059;-92
2022/08/04 03:06:27;;;;;;;3.92;2.92;;;;;;;20.15;56.28;98648.19;5115878;28;20102;-92
2022/08/04 03:09:29;;;;;;;4.00;2.75;;;;;;;19.99;56.23;98656.44;5115460;28;20122;-90
2022/08/04 03:12:23;;;;;;;3.78;2.72;;;;;;;19.88;56.34;98669.78;5115462;28;20043;-90
2022/08/04 03:15:41;;;;;;;3.58;2.72;;;;;;;19.65;56.98;98658.66;5115772;28;20032;-92
2022/08/04 03:18:36;;;;;;;4.87;2.90;;;;;;;19.53;58.25;98656.78;5053417;28;20049;-92
2022/08/04 03:21:42;;;;;;;3.45;2.88;;;;;;;19.42;58.67;98665.56;5053497;28;20048;-91
2022/08/04 03:24:47;;;;;;;4.65;3.10;;;;;;;19.46;58.74;98668.94;5052483;28;20045;-93
2022/08/04 03:27:38;;;;;;;4.22;3.13;;;;;;;19.43;59.15;98667.31;5053048;28;20072;-88
2022/08/04 03:30:07;;;;;;;6.80;3.08;;;;;;;19.49;59.46;98674.13;5051936;28;20037;-91
2022/08/04 03:32:56;;;;;;;;;;;;;;;19.45;59.41;98670.78;5053359;28;20051;-88
2022/08/04 03:35:58;;;;;;;4.15;3.08;;;;;;;19.61;58.68;98665.22;5052691;28;19981;-93
2022/08/04 03:39:03;;;;;;;4.20;3.05;;;;;;;19.52;59.29;98659.56;5029492;28;20053;-91
2022/08/04 03:42:05;;;;;;;4.57;3.03;;;;;;;19.39;59.78;98665.78;5021370;28;20410;-90
2022/08/04 03:45:03;;;;;;;4.57;3.10;;;;;;;19.28;59.79;98663.78;5052289;28;20123;-94
2022/08/04 03:48:07;;;;;;;5.47;3.20;;;;;;;19.21;59.85;98658.84;5053394;28;20033;-90
2022/08/04 03:54:43;;;;;;;4.00;3.22;;;;;;;19.04;60.58;98666.22;5134336;27;20356;-93
2022/08/04 03:57:42;;;;;;;4.93;3.15;;;;;;;18.99;60.88;98662.06;5134523;27;20559;-93
2022/08/04 04:00:13;;;;;;;4.05;3.13;;;;;;;18.96;61.33;98673.91;5138056;27;20034;-93
2022/08/04 04:03:10;;;;;;;3.88;3.45;;;;;;;18.97;61.42;98666.69;5138196;27;20031;-94
2022/08/04 04:06:05;;;;;;;4.15;3.15;;;;;;;18.98;60.92;98679.22;5136290;27;20391;-93
2022/08/04 04:09:19;;;;;;;4.50;3.20;;;;;;;18.88;61.41;98686.97;5139542;27;20484;-93
2022/08/04 04:12:13;;;;;;;5.03;3.13;;;;;;;18.80;61.21;98683.88;5113072;27;20047;-92
2022/08/04 04:14:54;;;;;;;6.95;3.22;;;;;;;18.65;61.83;98683.88;5135840;27;20039;-92
2022/08/04 04:17:50;;;;;;;6.15;3.25;;;;;;;18.55;62.32;98687.22;5137073;27;20046;-93
2022/08/04 04:20:52;;;;;;;5.68;3.03;;;;;;;18.54;62.86;98685.47;5131163;27;20048;-93
2022/08/04 04:23:36;;;;;;;4.60;3.13;;;;;;;18.52;62.98;98682.88;5139348;27;20046;-94
2022/08/04 04:26:17;;;;;;;4.20;3.05;;;;;;;18.54;63.13;98686.34;5132794;27;20173;-94
2022/08/04 04:29:02;;;;;;;5.68;3.60;;;;;;;18.55;63.30;98680.00;5134219;27;20599;-94
2022/08/04 04:31:37;;;;;;;5.45;3.33;;;;;;;18.58;63.71;98679.78;5136215;27;20519;-93
2022/08/04 04:34:15;;;;;;;6.63;3.28;;;;;;;18.56;64.45;98676.31;5136181;27;20119;-92
2022/08/04 04:36:53;;;;;;;4.40;3.67;;;;;;;18.58;64.15;98684.31;5132860;27;20047;-93
2022/08/04 04:39:31;;;;;;;6.20;3.20;;;;;;;18.56;64.45;98681.72;5135492;27;20035;-91
2022/08/04 04:42:13;;;;;;;4.47;3.25;;;;;;;18.60;64.06;98679.72;5132653;27;20036;-92
2022/08/04 04:45:05;;;;;;;4.65;3.28;;;;;;;18.63;64.33;98682.22;5137858;27;20491;-92
2022/08/04 04:47:41;;;;;;;5.68;3.53;;;;;;;18.52;64.45;98664.03;5138163;27;20066;-93
2022/08/04 04:50:14;;;;;;;4.55;3.17;;;;;;;18.56;64.08;98676.31;5143888;27;20564;-93
2022/08/04 04:52:47;;;;;;;6.82;3.50;;;;;;;18.59;65.15;98692.31;5129892;27;20056;-92
2022/08/04 04:55:21;;;;;;;5.65;3.40;;;;;;;18.59;65.28;98686.06;5135812;27;20043;-92
2022/08/04 04:57:51;;;;;;;5.25;3.22;;;;;;;18.59;65.19;98699.53;5133967;27;20544;-92
2022/08/04 05:00:19;;;;;;;6.63;3.35;;;;;;;18.57;65.28;98686.16;5131464;27;20034;-93
2022/08/04 05:03:23;;;;;;;6.43;3.50;;;;;;;18.73;65.14;98701.38;5134792;27;20067;-95
2022/08/04 05:06:07;;;;;;;6.57;3.55;;;;;;;18.77;65.11;98706.47;5121253;27;20126;-94
2022/08/04 05:08:50;;;;;;;6.43;3.40;;;;;;;18.76;65.41;98698.47;5121790;27;20051;-93
2022/08/04 05:11:51;;;;;;;6.30;3.50;;;;;;;18.89;64.96;98712.97;5126672;27;20077;-93
2022/08/04 05:14:22;;;;;;;6.03;3.25;;;;;;;19.36;63.53;98719.03;5085059;27;20032;-93
2022/08/04 05:16:56;;;;;;;4.60;3.65;;;;;;;20.05;60.92;98701.91;5117450;27;20476;-93
2022/08/04 05:19:30;;;;;;;6.00;3.70;;;;;;;20.58;59.16;98701.09;5118959;27;20042;-93
2022/08/04 05:22:02;;;;;;;4.78;3.17;;;;;;;20.85;58.62;98696.47;5123938;27;20036;-93
2022/08/04 05:24:33;;;;;;;4.28;3.25;;;;;;;21.17;58.38;98703.28;5121264;27;20015;-92
2022/08/04 05:27:08;;;;;;;6.07;3.30;;;;;;;21.40;56.47;98699.75;5124434;27;20105;-94
2022/08/04 05:29:36;;;;;;;4.50;3.20;;;;;;;21.63;56.16;98697.25;5120677;27;20126;-93
2022/08/04 05:32:11;;;;;;;5.97;3.22;;;;;;;21.95;56.10;98700.28;5124426;27;20032;-92
2022/08/04 05:34:41;;;;;;;4.65;3.20;;;;;;;22.16;55.37;98692.34;5123873;27;20051;-93
2022/08/04 05:37:09;;;;;;;4.00;3.15;;;;;;;22.31;55.14;98698.50;5120627;27;20057;-91
2022/08/04 05:39:41;;;;;;;;;;;;;;;22.65;54.42;98709.44;5121910;27;20032;-94
2022/08/04 05:42:10;;;;;;;5.03;3.08;;;;;;;22.84;51.07;98689.91;5117911;27;20287;-93
2022/08/04 05:44:37;;;;;;;9.25;3.03;;;;;;;23.02;50.23;98699.31;5118843;27;20039;-92
2022/08/04 05:47:05;;;;;;;4.90;3.53;;;;;;;23.10;50.08;98683.28;5122240;27;20043;-94
2022/08/04 05:49:33;;;;;;;5.45;3.00;;;;;;;23.07;49.48;98679.97;5120957;27;20484;-95
2022/08/04 05:52:01;;;;;;;3.63;2.70;;;;;;;23.23;49.23;98699.44;5118674;27;20063;-92
2022/08/04 05:54:29;;;;;;;3.90;2.97;;;;;;;23.44;48.83;98699.53;5123468;27;20279;-93
2022/08/04 05:56:56;;;;;;;4.13;3.00;;;;;;;23.53;48.91;98708.78;5126117;27;20523;-94
2022/08/04 05:59:24;;;;;;;3.70;2.85;;;;;;;23.60;48.55;98709.19;5126282;27;20039;-94
2022/08/04 06:01:54;;;;;;;4.53;2.92;;;;;;;23.67;48.59;98704.97;5119916;27;20535;-94
2022/08/04 06:04:24;;;;;;;6.22;3.22;;;;;;;23.69;48.61;98681.28;5121607;27;20400;-94
2022/08/04 06:06:51;;;;;;;5.07;3.30;;;;;;;23.99;47.52;98705.91;5116315;28;20051;-94
2022/08/04 06:09:17;;;;;;;4.90;3.40;;;;;;;24.03;48.20;98697.50;5120791;27;20455;-93
2022/08/04 06:11:46;;;;;;;3.78;3.00;;;;;;;24.10;47.54;98686.00;5119063;27;20092;-93
2022/08/04 06:14:14;;;;;;;6.25;3.28;;;;;;;24.29;47.88;98695.28;5125570;27;20111;-94
2022/08/04 06:16:42;;;;;;;6.13;3.40;;;;;;;24.31;47.68;98691.47;5117023;27;20114;-93
2022/08/04 06:19:12;;;;;;;5.50;3.70;;;;;;;24.39;47.61;98696.25;5117837;28;20046;-93
2022/08/04 06:21:44;;;;;;;6.38;3.58;;;;;;;24.47;47.14;98690.16;5119456;27;20046;-94
2022/08/04 06:24:14;;;;;;;6.65;3.33;;;;;;;24.64;46.77;98697.75;5124717;27;20046;-95
2022/08/04 06:26:43;;;;;;;4.15;3.17;;;;;;;24.64;46.78;98695.03;5118526;27;20065;-94
2022/08/04 06:29:25;;;;;;;6.90;3.40;;;;;;;24.66;46.38;98690.34;5117248;27;20039;-94
2022/08/04 06:31:57;;;;;;;6.45;3.40;;;;;;;24.74;46.46;98695.94;5117281;28;20059;-93
2022/08/04 06:34:24;;;;;;;4.65;3.28;;;;;;;24.76;46.25;98688.53;5117206;28;20043;-94
2022/08/04 06:36:53;;;;;;;6.00;3.40;;;;;;;24.94;45.59;98696.06;5120944;27;20049;-95
2022/08/04 06:39:19;;;;;;;;;;;;;;;24.99;45.21;98708.28;5125112;27;20063;-94
2022/08/04 06:41:46;;;;;;;5.18;3.30;;;;;;;25.17;44.98;98700.34;5117414;28;19959;-94
2022/08/04 06:44:14;;;;;;;5.50;3.50;;;;;;;25.14;44.97;98691.63;5118714;28;20046;-94
2022/08/04 06:46:42;;;;;;;6.72;3.30;;;;;;;25.28;45.19;98688.53;5118444;28;20043;-92
2022/08/04 06:49:09;;;;;;;8.43;3.47;;;;;;;25.37;45.59;98700.47;5122212;27;20043;-95
2022/08/04 06:51:37;;;;;;;6.60;3.97;;;;;;;25.41;44.85;98710.09;5119566;28;20043;-95
2022/08/04 06:54:05;;;;;;;6.07;3.33;;;;;;;25.22;45.42;98694.53;5130531;27;20054;-95
2022/08/04 06:56:34;;;;;;;5.97;3.58;;;;;;;25.40;45.39;98690.19;5128523;27;20039;-95
2022/08/04 06:59:01;;;;;;;8.52;3.50;;;;;;;25.52;44.60;98701.81;5108268;28;20099;-93
2022/08/04 07:01:28;;;;;;;6.78;3.60;;;;;;;25.59;44.87;98691.22;5120208;28;20130;-94
2022/08/04 07:03:54;;;;;;;7.15;3.90;;;;;;;25.82;43.94;98697.31;5121125;27;20048;-93
2022/08/04 07:06:21;;;;;;;5.20;3.63;;;;;;;25.50;44.35;98673.00;5118019;27;20040;-93
2022/08/04 07:08:48;;;;;;;7.38;3.55;;;;;;;25.88;44.07;98696.78;5123290;27;20038;-93
2022/08/04 07:11:16;;;;;;;7.07;4.13;;;;;;;25.69;44.26;98689.41;5122796;27;20043;-95
2022/08/04 07:13:44;;;;;;;4.45;3.30;;;;;;;25.71;43.91;98667.47;5126084;27;20044;-95
2022/08/04 07:16:13;;;;;;;6.50;3.63;;;;;;;25.99;43.33;98676.75;5124256;27;20057;-93
2022/08/04 07:18:39;;;;;;;4.32;3.25;;;;;;;26.35;43.05;98687.94;5119057;27;20046;-94
2022/08/04 07:21:05;;;;;;;16.35;5.00;;;;;;;26.62;42.28;98687.25;5121745;27;20122;-96
2022/08/04 07:23:31;;;;;;;4.78;3.22;;;;;;;26.52;42.15;98691.81;5124150;27;20110;-94
2022/08/04 07:25:58;;;;;;;5.40;3.42;;;;;;;26.13;43.11;98689.06;5123238;27;20046;-94
2022/08/04 07:28:26;;;;;;;9.25;3.50;;;;;;;26.54;42.07;98695.25;5117937;27;20040;-91
2022/08/04 07:30:53;;;;;;;6.93;3.63;;;;;;;26.71;41.77;98677.31;5118245;27;20105;-92
2022/08/04 07:33:20;;;;;;;7.32;3.72;;;;;;;26.98;40.47;98677.41;5124046;27;20039;-91
2022/08/04 07:35:49;;;;;;;5.43;3.42;;;;;;;27.25;40.73;98678.50;5119573;27;20079;-96
2022/08/04 07:38:15;;;;;;;5.43;3.47;;;;;;;27.47;39.96;98681.84;5117934;28;20443;-94
2022/08/04 07:40:41;;;;;;;6.03;3.13;;;;;;;27.77;39.66;98697.94;5126294;27;20087;-95
2022/08/04 07:43:08;;;;;;;4.72;3.10;;;;;;;27.94;39.18;98673.56;5119299;28;20035;-93
2022/08/04 07:45:36;;;;;;;6.03;3.35;;;;;;;28.18;39.15;98667.47;5117965;28;20044;-93
2022/08/04 07:48:04;;;;;;;5.22;3.20;;;;;;;28.28;38.09;98673.75;5125529;27;20070;-94
2022/08/04 07:50:31;;;;;;;5.82;3.50;;;;;;;27.90;38.50;98670.25;5123459;28;20069;-93
2022/08/04 07:53:01;;;;;;;24.23;6.35;;;;;;;28.23;38.64;98673.31;5118492;28;20489;-92
2022/08/04 07:55:27;;;;;;;13.85;4.70;;;;;;;28.62;38.28;98681.22;5120288;28;20137;-94
2022/08/04 07:57:53;;;;;;;8.40;3.75;;;;;;;28.85;37.56;98679.69;5119647;27;20136;-92
2022/08/04 08:00:19;;;;;;;8.82;3.45;;;;;;;28.93;37.12;98659.75;5121838;28;20399;-92
2022/08/04 08:02:49;;;;;;;5.97;3.40;;;;;;;29.14;36.83;98659.38;5127282;27;20035;-93
2022/08/04 08:05:18;;;;;;;6.75;3.33;;;;;;;29.48;35.67;98667.59;5123959;27;20057;-93
2022/08/04 08:07:45;;;;;;;5.07;3.35;;;;;;;29.38;36.48;98655.88;5120395;28;20047;-93
2022/08/04 08:10:12;;;;;;;4.55;3.20;;;;;;;29.62;36.13;98667.97;5117753;28;20834;-94
2022/08/04 08:12:38;;;;;;;6.55;3.60;;;;;;;29.76;35.42;98661.91;5123615;28;20036;-94
2022/08/04 08:15:05;;;;;;;5.85;3.63;;;;;;;29.74;34.71;98668.59;5118709;28;20457;-90
2022/08/04 08:17:31;;;;;;;7.53;3.70;;;;;;;29.79;35.49;98664.28;5118910;28;20099;-94
2022/08/04 08:19:59;;;;;;;4.80;3.58;;;;;;;30.02;34.89;98664.53;5116565;28;20039;-93
2022/08/04 08:22:25;;;;;;;5.60;3.58;;;;;;;30.14;34.40;98659.56;5115526;28;20039;-93
2022/08/04 08:24:51;;;;;;;7.80;3.38;;;;;;;30.36;34.09;98662.72;5123607;28;20434;-91
2022/08/04 08:27:17;;;;;;;7.13;3.72;;;;;;;30.44;34.46;98649.00;5116849;27;20392;-88
2022/08/04 08:29:44;;;;;;;6.35;3.13;;;;;;;30.64;33.79;98663.22;5118618;28;20061;-91
2022/08/04 08:32:12;;;;;;;5.72;3.42;;;;;;;30.78;33.16;98658.94;5121988;28;20071;-91
2022/08/04 08:34:40;;;;;;;7.22;3.78;;;;;;;30.87;32.70;98660.69;5122055;27;20031;-88
2022/08/04 08:37:17;;;;;;;6.15;3.47;;;;;;;30.89;32.06;98643.00;5114224;28;20163;-91
2022/08/04 08:39:51;;;;;;;4.20;3.30;;;;;;;31.00;32.54;98632.69;5121223;27;20365;-92
2022/08/04 08:42:52;;;;;;;4.93;3.40;;;;;;;31.16;31.16;98654.59;5120108;27;20367;-92
2022/08/04 08:45:47;;;;;;;6.00;3.60;;;;;;;31.27;31.52;98656.09;5102715;27;20400;-92
2022/08/04 08:49:03;;;;;;;7.47;3.90;;;;;;;31.43;31.15;98658.84;5122050;27;20051;-93
2022/08/04 08:51:46;;;;;;;7.75;3.50;;;;;;;31.58;31.50;98644.38;5115282;27;20052;-93
2022/08/04 08:54:57;;;;;;;6.10;3.47;;;;;;;31.79;30.95;98655.56;5081128;28;20045;-92
2022/08/04 08:57:54;;;;;;;4.80;3.10;;;;;;;31.99;30.54;98650.53;5018638;28;20416;-95
2022/08/04 09:00:32;;;;;;;4.55;3.65;;;;;;;31.44;30.73;98633.06;4997354;28;20531;-94
2022/08/04 09:03:31;;;;;;;7.55;3.70;;;;;;;31.08;30.88;98627.16;5021016;28;20537;-96
2022/08/04 09:06:09;;;;;;;5.35;3.10;;;;;;;31.50;30.29;98651.59;5019271;28;20046;-94
2022/08/04 09:09:01;;;;;;;5.18;3.20;;;;;;;31.78;30.44;98639.25;5021507;28;20038;-94
2022/08/04 09:11:36;;;;;;;4.22;3.25;;;;;;;31.94;29.47;98630.91;5022814;28;20045;-94
2022/08/04 09:14:10;;;;;;;5.82;3.10;;;;;;;31.99;29.41;98623.00;5020384;28;20049;-95
2022/08/04 09:16:41;;;;;;;4.95;3.42;;;;;;;32.13;29.34;98613.94;5020240;28;20056;-94
2022/08/04 09:19:15;;;;;;;4.65;3.20;;;;;;;32.01;28.01;98620.94;5021325;28;20069;-94
2022/08/04 09:21:51;;;;;;;4.60;3.03;;;;;;;32.22;29.28;98636.75;5021852;28;20042;-94
2022/08/04 09:24:23;;;;;;;5.40;3.30;;;;;;;31.92;28.92;98609.09;5021153;28;20046;-94
2022/08/04 09:26:55;;;;;;;4.25;3.45;;;;;;;32.26;29.08;98638.09;5021904;28;20065;-94
2022/08/04 09:29:35;;;;;;;6.53;3.30;;;;;;;32.18;28.78;98602.38;5020250;28;20133;-93
2022/08/04 09:32:07;;;;;;;3.63;3.13;;;;;;;32.58;27.61;98613.28;5024719;28;20049;-94
2022/08/04 09:34:43;;;;;;;5.90;3.20;;;;;;;32.89;27.78;98626.91;5082826;28;20056;-92
2022/08/04 09:37:22;;;;;;;4.07;3.10;;;;;;;32.91;27.29;98614.66;5083581;28;20049;-93
2022/08/04 09:40:03;;;;;;;4.18;3.10;;;;;;;33.22;27.20;98627.41;5082873;28;20066;-92
2022/08/04 09:42:40;;;;;;;4.60;2.92;;;;;;;33.10;26.84;98616.03;5081161;28;20064;-92
2022/08/04 09:45:15;;;;;;;5.18;3.10;;;;;;;32.81;27.47;98633.34;5091722;28;20093;-93
2022/08/04 09:47:48;;;;;;;5.22;3.38;;;;;;;32.81;27.41;98610.47;5101201;28;20059;-94
2022/08/04 09:50:25;;;;;;;6.10;3.15;;;;;;;33.17;27.04;98623.53;5082739;28;20052;-92
2022/08/04 09:53:01;;;;;;;4.60;3.05;;;;;;;33.32;26.90;98633.50;5109759;27;20051;-94
2022/08/04 09:55:41;;;;;;;4.18;3.13;;;;;;;33.43;26.58;98601.00;5139906;27;20490;-93
2022/08/04 09:58:21;;;;;;;4.93;3.40;;;;;;;33.25;25.84;98618.78;5140242;27;20054;-94
2022/08/04 10:00:52;;;;;;;3.72;3.03;;;;;;;33.54;26.46;98608.78;5130270;27;20070;-92
2022/08/04 10:03:24;;;;;;;3.40;3.00;;;;;;;33.94;25.86;98620.28;5118774;27;20040;-93
2022/08/04 10:06:14;;;;;;;4.68;3.13;;;;;;;33.38;25.25;98587.81;5118912;28;20044;-96
2022/08/04 10:08:59;;;;;;;4.38;3.10;;;;;;;33.66;25.69;98603.63;5107193;27;20134;-94
2022/08/04 10:11:53;;;;;;;4.25;3.30;;;;;;;33.86;25.42;98604.72;5114006;27;20497;-93
2022/08/04 10:14:38;;;;;;;3.70;2.90;;;;;;;33.27;24.60;98578.13;5128461;27;20087;-95
2022/08/04 10:17:18;;;;;;;5.05;3.08;;;;;;;33.69;25.40;98606.88;5134444;27;20048;-92
2022/08/04 10:19:52;;;;;;;4.25;3.10;;;;;;;33.54;25.26;98601.34;5127850;27;20478;-91
2022/08/04 10:22:24;;;;;;;4.55;3.15;;;;;;;33.74;25.12;98601.59;5125070;27;20196;-92
2022/08/04 10:25:01;;;;;;;6.53;2.90;;;;;;;34.03;24.04;98597.06;5122870;27;20038;-92
2022/08/04 10:27:33;;;;;;;5.07;3.03;;;;;;;34.12;24.00;98579.34;5118126;28;20040;-93
2022/08/04 10:30:10;;;;;;;3.70;2.70;;;;;;;34.01;24.20;98562.44;5121198;27;20047;-94
2022/08/04 10:32:44;;;;;;;3.80;2.80;;;;;;;34.15;24.38;98567.91;5122353;27;20035;-93
2022/08/04 10:35:13;;;;;;;4.75;2.80;;;;;;;34.00;23.88;98580.03;5127104;27;20047;-93
2022/08/04 10:37:47;;;;;;;3.63;2.85;;;;;;;33.76;23.17;98585.72;5117541;27;20093;-93
2022/08/04 10:43:43;;;;;;;4.05;2.80;;;;;;;33.92;23.49;98581.88;5135607;27;20379;-92
2022/08/04 10:46:12;;;;;;;4.13;2.90;;;;;;;34.22;22.41;98581.75;5133523;28;20553;-92
2022/08/04 10:48:46;;;;;;;4.40;2.53;;;;;;;34.27;21.69;98572.91;5134425;27;20043;-92
2022/08/04 10:51:23;;;;;;;5.00;2.60;;;;;;;33.99;21.42;98581.94;5134738;27;20078;-93
2022/08/04 10:53:56;;;;;;;2.97;2.60;;;;;;;34.03;21.47;98590.66;5133345;28;20040;-94
2022/08/04 10:56:31;;;;;;;6.47;2.90;;;;;;;33.89;22.63;98565.72;5131853;27;20043;-94
2022/08/04 10:59:03;;;;;;;4.93;2.90;;;;;;;33.50;22.58;98572.44;5132635;27;20628;-93
2022/08/04 11:01:32;;;;;;;4.07;2.80;;;;;;;33.26;23.27;98575.53;5132102;27;20050;-92
2022/08/04 11:04:04;;;;;;;3.30;2.67;;;;;;;33.27;22.89;98574.50;5132434;28;20042;-90
2022/08/04 11:06:32;;;;;;;7.80;3.00;;;;;;;32.80;23.53;98570.22;5131613;27;20035;-91
2022/08/04 11:08:59;;;;;;;;;;;;;;;32.74;23.91;98580.06;5130621;28;20100;-91
2022/08/04 11:11:31;;;;;;;3.60;2.90;;;;;;;32.73;23.76;98559.94;5132148;28;20367;-87
2022/08/04 11:14:03;;;;;;;3.30;2.53;;;;;;;33.23;23.82;98563.00;5131796;27;20038;-93
2022/08/04 11:16:36;;;;;;;3.65;2.60;;;;;;;33.59;23.47;98559.44;5130879;28;20088;-92
2022/08/04 11:19:13;;;;;;;4.25;2.70;;;;;;;33.88;22.80;98555.75;5130666;28;20044;-91
2022/08/04 11:21:43;;;;;;;6.10;2.67;;;;;;;34.19;22.38;98551.81;5132921;27;20032;-93
2022/08/04 11:24:17;;;;;;;4.45;2.70;;;;;;;34.27;22.02;98557.19;5133656;27;20272;-93
2022/08/04 11:26:48;;;;;;;4.38;2.70;;;;;;;34.38;22.06;98542.00;5132930;27;20058;-92
2022/08/04 11:29:24;;;;;;;4.63;2.60;;;;;;;34.53;22.59;98547.44;5131808;27;20055;-93
2022/08/04 11:31:51;;;;;;;3.05;2.60;;;;;;;34.57;21.96;98533.03;5129853;28;20055;-91
2022/08/04 11:34:21;;;;;;;3.45;2.53;;;;;;;34.56;21.00;98545.09;5130972;27;20511;-93
2022/08/04 11:36:53;;;;;;;5.00;2.80;;;;;;;34.41;20.78;98537.97;5130877;27;20103;-93
2022/08/04 11:39:27;;;;;;;3.95;2.67;;;;;;;34.54;20.92;98538.94;5131666;27;20097;-93
2022/08/04 11:42:00;;;;;;;3.40;2.80;;;;;;;34.69;20.80;98540.78;5130757;28;20051;-92
2022/08/04 11:44:35;;;;;;;4.55;2.55;;;;;;;34.66;20.21;98519.09;5131755;27;20118;-93
2022/08/04 11:47:08;;;;;;;3.42;2.50;;;;;;;34.87;20.38;98540.25;5133374;27;20070;-94
2022/08/04 11:49:40;;;;;;;4.95;2.70;;;;;;;34.82;19.90;98535.31;5132318;28;20074;-93
2022/08/04 11:52:08;;;;;;;3.45;2.70;;;;;;;34.84;19.55;98518.56;5128429;27;20039;-93
2022/08/04 11:54:37;;;;;;;4.70;2.80;;;;;;;34.94;19.43;98530.94;5116284;27;20040;-93
2022/08/04 11:57:04;;;;;;;4.20;2.38;;;;;;;34.95;19.95;98524.34;5117906;27;20488;-93
2022/08/04 11:59:34;;;;;;;3.38;2.50;;;;;;;34.98;19.85;98528.59;5117807;28;20038;-94
2022/08/04 12:02:29;;;;;;;3.65;2.60;;;;;;;34.90;19.91;98515.81;5118040;28;20055;-92
2022/08/04 12:04:57;;;;;;;4.85;2.90;;;;;;;34.75;20.63;98512.34;5116121;28;20486;-93
2022/08/04 12:07:37;;;;;;;5.70;2.80;;;;;;;34.77;20.01;98521.28;5116807;28;20051;-93
2022/08/04 12:10:14;;;;;;;3.13;2.42;;;;;;;34.20;19.80;98514.91;5117044;28;20051;-93
2022/08/04 12:12:46;;;;;;;3.22;2.65;;;;;;;34.22;19.26;98504.47;5116263;28;20056;-91
2022/08/04 12:15:21;;;;;;;3.67;2.60;;;;;;;34.27;19.27;98503.91;5115623;28;20039;-95
2022/08/04 12:17:56;;;;;;;3.67;2.40;;;;;;;34.39;20.10;98505.03;5117119;28;20042;-93
2022/08/04 12:20:26;;;;;;;2.95;2.40;;;;;;;34.59;20.23;98513.47;5116008;28;20131;-91
2022/08/04 12:22:55;;;;;;;4.40;2.70;;;;;;;34.73;20.01;98511.69;5114391;28;20028;-93
2022/08/04 12:25:29;;;;;;;5.18;2.50;;;;;;;34.61;19.40;98493.94;5116334;28;20039;-93